Time;durP1;ratioP1;P1;durP2;ratioP2;P2;SDS_P1;SDS_P2;PMS_P1;PMS_P2;Temp;Humidity;BMP_temperature;BMP_pressure;BME280_temperature;BME280_humidity;BME280_pressure;Samples;Min_cycle;Max_cycle;Signal;HPM_P1;HPM_P2
2022/08/13 00:02:17;;;;;;;1.40;1.08;;;26.20;57.40;;;;;;4508411;31;20131;-66
2022/08/13 00:05:01;;;;;;;1.02;0.90;;;26.20;57.50;;;;;;4508322;31;20064;-66
2022/08/13 00:07:29;;;;;;;1.35;1.00;;;26.20;57.40;;;;;;4508395;31;20132;-66
2022/08/13 00:09:56;;;;;;;1.55;0.93;;;26.20;57.50;;;;;;4508313;31;20073;-66
2022/08/13 00:15:20;;;;;;;1.20;1.00;;;26.20;57.40;;;;;;4508473;31;20073;-66
2022/08/13 00:17:49;;;;;;;1.73;1.00;;;26.20;57.50;;;;;;4508700;31;20521;-66
2022/08/13 00:20:17;;;;;;;2.30;1.00;;;26.20;57.50;;;;;;4508193;31;20205;-67
2022/08/13 00:22:43;;;;;;;3.83;1.20;;;26.20;57.50;;;;;;4494014;31;20483;-66
2022/08/13 00:25:10;;;;;;;1.15;0.90;;;26.10;57.40;;;;;;4508122;31;20095;-66
2022/08/13 00:27:36;;;;;;;1.70;1.00;;;26.10;57.40;;;;;;4508084;31;20414;-66
2022/08/13 00:30:05;;;;;;;1.38;1.00;;;26.10;57.40;;;;;;4507882;31;20072;-66
2022/08/13 00:32:32;;;;;;;2.53;1.25;;;26.10;57.40;;;;;;4508034;31;20084;-66
2022/08/13 00:35:00;;;;;;;3.53;1.08;;;26.10;57.40;;;;;;4507700;31;20201;-66
2022/08/13 00:37:27;;;;;;;1.70;1.10;;;26.20;57.40;;;;;;4507512;31;20095;-66
2022/08/13 00:39:54;;;;;;;2.40;1.30;;;26.10;57.40;;;;;;4508006;31;20227;-66
2022/08/13 00:42:22;;;;;;;1.20;1.00;;;26.10;57.40;;;;;;4507653;31;20064;-66
2022/08/13 00:44:48;;;;;;;1.60;0.93;;;26.10;57.40;;;;;;4508045;31;20096;-66
2022/08/13 00:49:59;;;;;;;2.95;0.88;;;26.10;57.40;;;;;;4507517;31;20098;-66
2022/08/13 00:52:30;;;;;;;2.40;0.93;;;26.10;57.40;;;;;;4507491;31;20084;-66
2022/08/13 00:55:02;;;;;;;2.30;1.08;;;26.10;57.40;;;;;;4507723;31;20080;-66
2022/08/13 00:57:31;;;;;;;1.40;1.00;;;26.10;57.40;;;;;;4507779;31;20127;-66
2022/08/13 00:59:57;;;;;;;2.22;1.10;;;26.10;57.40;;;;;;4507534;31;20494;-66
2022/08/13 01:02:24;;;;;;;1.15;1.00;;;26.10;57.40;;;;;;4493639;31;20571;-66
2022/08/13 01:04:50;;;;;;;1.05;1.00;;;26.10;57.50;;;;;;4493157;31;20124;-68
2022/08/13 01:07:19;;;;;;;1.02;0.93;;;26.10;57.40;;;;;;4507726;31;20088;-66
2022/08/13 01:09:45;;;;;;;2.00;1.10;;;26.10;57.50;;;;;;4507338;31;20083;-67
2022/08/13 01:12:13;;;;;;;2.55;1.17;;;26.10;57.50;;;;;;4493162;31;20099;-66
2022/08/13 01:14:40;;;;;;;1.35;1.13;;;26.00;57.40;;;;;;4507533;31;20083;-66
2022/08/13 01:17:08;;;;;;;3.17;1.27;;;26.00;57.40;;;;;;4507633;31;20068;-66
2022/08/13 01:19:39;;;;;;;1.58;1.10;;;26.00;57.50;;;;;;4507634;31;20061;-66
2022/08/13 01:22:05;;;;;;;1.00;0.90;;;26.10;57.50;;;;;;4507732;31;20087;-66
2022/08/13 01:24:31;;;;;;;1.88;1.10;;;26.00;57.50;;;;;;4507582;31;20708;-66
2022/08/13 01:26:58;;;;;;;2.17;0.90;;;26.00;57.50;;;;;;4507571;31;20076;-66
2022/08/13 01:29:25;;;;;;;0.80;0.80;;;26.00;57.50;;;;;;4507784;31;20656;-66
2022/08/13 01:31:51;;;;;;;1.33;1.00;;;26.00;57.50;;;;;;4507799;31;20117;-71
2022/08/13 01:34:18;;;;;;;0.95;0.90;;;26.00;57.50;;;;;;4507192;31;20166;-66
2022/08/13 01:36:46;;;;;;;1.55;0.88;;;26.00;57.50;;;;;;4507229;31;20073;-66
2022/08/13 01:39:13;;;;;;;1.02;0.93;;;26.00;57.50;;;;;;4507525;31;20079;-66
2022/08/13 01:41:39;;;;;;;2.05;0.95;;;26.00;57.50;;;;;;4507188;31;20161;-66
2022/08/13 01:44:06;;;;;;;1.38;0.82;;;26.00;57.50;;;;;;4507210;31;20181;-66
2022/08/13 01:52:08;;;;;;;1.48;1.10;;;26.00;57.50;;;;;;4510722;31;20061;-66
2022/08/13 01:54:36;;;;;;;0.95;0.80;;;26.00;57.50;;;;;;4510036;31;20103;-66
2022/08/13 01:57:05;;;;;;;2.13;0.93;;;25.90;57.40;;;;;;4510318;31;20077;-66
2022/08/13 01:59:34;;;;;;;1.95;0.90;;;26.00;57.50;;;;;;4510283;31;20131;-66
2022/08/13 02:02:01;;;;;;;1.30;0.90;;;26.00;57.50;;;;;;4510512;31;20184;-66
2022/08/13 02:04:28;;;;;;;1.23;0.90;;;25.90;57.40;;;;;;4510529;31;20190;-64
2022/08/13 02:06:54;;;;;;;0.68;0.68;;;25.90;57.40;;;;;;4510200;31;20222;-66
2022/08/13 02:09:23;;;;;;;2.22;1.10;;;25.90;57.50;;;;;;4509857;31;20096;-66
2022/08/13 02:11:49;;;;;;;2.08;0.85;;;25.90;57.40;;;;;;4510226;31;20185;-66
2022/08/13 02:14:16;;;;;;;1.25;0.90;;;25.90;57.40;;;;;;4510030;31;20502;-69
2022/08/13 02:16:42;;;;;;;0.93;0.88;;;25.90;57.40;;;;;;4510204;31;20161;-66
2022/08/13 02:19:08;;;;;;;0.93;0.80;;;25.90;57.40;;;;;;4510052;31;20073;-66
2022/08/13 02:21:37;;;;;;;1.10;0.77;;;25.90;57.40;;;;;;4510026;31;20083;-66
2022/08/13 02:24:08;;;;;;;1.40;0.90;;;25.90;57.50;;;;;;4509869;31;20096;-69
2022/08/13 02:26:34;;;;;;;1.38;1.00;;;25.90;57.50;;;;;;4510282;31;20494;-65
2022/08/13 02:29:04;;;;;;;1.45;1.00;;;25.90;58.40;;;;;;4510104;31;20119;-66
2022/08/13 02:31:30;;;;;;;0.98;0.85;;;25.90;57.50;;;;;;4509796;31;20497;-66
2022/08/13 02:33:56;;;;;;;1.40;1.02;;;25.90;57.50;;;;;;4495503;31;20084;-66
2022/08/13 02:36:23;;;;;;;2.22;0.88;;;25.80;57.40;;;;;;4509754;31;20135;-66
2022/08/13 02:38:57;;;;;;;1.38;1.00;;;25.90;57.50;;;;;;4509708;31;20097;-66
2022/08/13 02:41:40;;;;;;;0.75;0.75;;;25.80;57.40;;;;;;4510104;31;20126;-66
2022/08/13 02:44:13;;;;;;;1.00;0.90;;;25.80;57.40;;;;;;4510035;31;20072;-66
2022/08/13 02:46:47;;;;;;;1.23;0.90;;;25.80;57.50;;;;;;4509637;31;20087;-66
2022/08/13 02:49:13;;;;;;;1.35;0.82;;;25.80;57.50;;;;;;4509605;31;20092;-66
2022/08/13 02:51:39;;;;;;;0.80;0.80;;;25.90;57.50;;;;;;4509518;31;20076;-72
2022/08/13 02:54:06;;;;;;;1.50;1.08;;;25.80;57.50;;;;;;4509169;31;20080;-66
2022/08/13 02:56:34;;;;;;;2.60;0.80;;;25.80;57.50;;;;;;4509712;31;20409;-66
2022/08/13 02:59:00;;;;;;;1.60;0.80;;;25.80;57.50;;;;;;4509007;31;20088;-66
2022/08/13 03:01:27;;;;;;;1.02;0.82;;;25.80;57.50;;;;;;4509681;31;20151;-66
2022/08/13 03:03:54;;;;;;;1.25;1.02;;;25.80;57.50;;;;;;4509316;31;20106;-67
2022/08/13 03:06:20;;;;;;;1.25;0.90;;;25.80;57.50;;;;;;4509359;31;20061;-66
2022/08/13 03:08:52;;;;;;;1.00;0.90;;;25.80;57.50;;;;;;4509256;31;20544;-66
2022/08/13 03:11:19;;;;;;;0.80;0.80;;;25.80;57.50;;;;;;4509055;31;20109;-66
2022/08/13 03:14:17;;;;;;;0.77;0.77;;;25.80;57.50;;;;;;4509089;31;20092;-66
2022/08/13 03:16:44;;;;;;;1.25;1.00;;;25.80;57.50;;;;;;4498452;31;20057;-66
2022/08/13 03:19:10;;;;;;;1.13;0.95;;;25.80;57.50;;;;;;4494612;31;20190;-66
2022/08/13 03:21:39;;;;;;;1.67;1.00;;;25.70;57.40;;;;;;4508775;31;20095;-66
2022/08/13 03:24:06;;;;;;;1.77;0.90;;;25.70;57.40;;;;;;4509104;31;20506;-66
2022/08/13 03:26:33;;;;;;;1.10;0.90;;;25.70;57.40;;;;;;4508982;31;20206;-66
2022/08/13 03:29:03;;;;;;;1.08;0.98;;;25.80;57.50;;;;;;4508946;31;20116;-66
2022/08/13 03:31:29;;;;;;;1.20;0.98;;;25.70;57.40;;;;;;4508754;31;20091;-66
2022/08/13 03:34:01;;;;;;;0.80;0.80;;;25.70;57.40;;;;;;4508862;31;20080;-66
2022/08/13 03:36:28;;;;;;;1.20;0.70;;;25.70;57.40;;;;;;4508867;31;20077;-66
2022/08/13 03:38:54;;;;;;;1.23;0.80;;;25.70;57.40;;;;;;4508597;31;20142;-66
2022/08/13 03:41:19;;;;;;;1.23;0.90;;;25.70;57.40;;;;;;4494203;31;20226;-66
2022/08/13 03:43:47;;;;;;;0.90;0.80;;;25.70;57.40;;;;;;4508994;31;20210;-66
2022/08/13 03:46:17;;;;;;;0.80;0.80;;;25.70;57.40;;;;;;4508648;31;20085;-66
2022/08/13 03:48:44;;;;;;;0.98;0.80;;;25.70;57.50;;;;;;4508163;31;20092;-66
2022/08/13 03:51:11;;;;;;;0.80;0.80;;;25.70;57.40;;;;;;4508774;31;20077;-66
2022/08/13 03:53:38;;;;;;;0.93;0.70;;;25.70;57.40;;;;;;4508558;31;20511;-66
2022/08/13 03:56:06;;;;;;;1.30;0.85;;;25.70;57.40;;;;;;4508559;31;20492;-66
2022/08/13 03:58:33;;;;;;;0.98;0.77;;;25.70;57.40;;;;;;4508492;31;20095;-66
2022/08/13 04:01:01;;;;;;;1.20;1.10;;;25.70;57.40;;;;;;4508687;31;20073;-66
2022/08/13 04:03:29;;;;;;;0.85;0.80;;;25.70;57.50;;;;;;4508483;31;20535;-66
2022/08/13 04:06:04;;;;;;;1.70;1.10;;;25.70;57.40;;;;;;4508677;31;20077;-66
2022/08/13 04:08:34;;;;;;;0.80;0.80;;;25.70;57.40;;;;;;4508577;31;20532;-66
2022/08/13 04:11:03;;;;;;;1.27;0.90;;;25.70;57.50;;;;;;4507739;31;20149;-66
2022/08/13 04:13:36;;;;;;;1.10;1.00;;;25.60;58.30;;;;;;4508400;31;20563;-66
2022/08/13 04:16:07;;;;;;;;;;;25.60;57.40;;;;;;4508910;31;20127;-66
2022/08/13 04:18:35;;;;;;;1.85;0.93;;;25.60;57.30;;;;;;4508653;31;19969;-66
2022/08/13 04:21:08;;;;;;;2.13;1.10;;;25.60;57.40;;;;;;4507958;31;20124;-66
2022/08/13 04:23:38;;;;;;;0.93;0.83;;;25.60;57.40;;;;;;4508348;31;20716;-66
2022/08/13 04:26:04;;;;;;;1.48;1.00;;;25.60;57.40;;;;;;4508164;31;20073;-66
2022/08/13 04:28:30;;;;;;;1.20;0.90;;;25.60;57.40;;;;;;4508104;31;20161;-66
2022/08/13 04:30:57;;;;;;;2.35;0.80;;;25.60;57.40;;;;;;4508599;31;20081;-66
2022/08/13 04:33:23;;;;;;;1.55;1.02;;;25.60;57.40;;;;;;4508055;31;20178;-66
2022/08/13 04:35:49;;;;;;;1.15;0.80;;;25.60;57.40;;;;;;4508246;31;20073;-66
2022/08/13 04:38:15;;;;;;;1.13;0.70;;;25.60;57.40;;;;;;4507994;31;20068;-66
2022/08/13 04:40:47;;;;;;;1.17;0.90;;;25.60;57.40;;;;;;4508042;31;20124;-66
2022/08/13 04:43:14;;;;;;;1.42;0.90;;;25.60;57.40;;;;;;4508089;31;20177;-66
2022/08/13 04:45:42;;;;;;;1.00;0.90;;;25.60;57.40;;;;;;4508113;31;20092;-66
2022/08/13 04:48:13;;;;;;;2.15;0.90;;;25.60;57.40;;;;;;4507873;31;20107;-66
2022/08/13 04:50:40;;;;;;;1.83;0.90;;;25.60;57.40;;;;;;4507543;31;20077;-66
2022/08/13 04:53:35;;;;;;;1.00;0.90;;;25.60;57.40;;;;;;4507872;31;20080;-66
2022/08/13 04:56:02;;;;;;;1.30;0.90;;;25.50;57.30;;;;;;4508012;31;20504;-66
2022/08/13 04:58:35;;;;;;;1.17;0.93;;;25.50;57.30;;;;;;4507795;31;20096;-67
2022/08/13 05:01:09;;;;;;;1.20;0.90;;;25.50;57.30;;;;;;4507864;31;20219;-66
2022/08/13 05:03:39;;;;;;;1.00;0.90;;;25.50;57.40;;;;;;4507828;31;20157;-66
2022/08/13 05:06:07;;;;;;;0.90;0.80;;;25.50;57.40;;;;;;4508144;31;20096;-66
2022/08/13 05:08:33;;;;;;;1.05;0.90;;;25.50;57.40;;;;;;4507415;31;20153;-66
2022/08/13 05:11:00;;;;;;;1.17;1.08;;;25.50;57.40;;;;;;4507700;31;20089;-66
2022/08/13 05:13:36;;;;;;;1.48;0.90;;;25.50;57.30;;;;;;4493581;31;20486;-66
2022/08/13 05:16:06;;;;;;;1.00;0.90;;;25.50;57.30;;;;;;4493379;31;20081;-66
2022/08/13 05:18:34;;;;;;;2.38;1.08;;;25.50;57.30;;;;;;4507497;31;20092;-71
2022/08/13 05:21:03;;;;;;;3.15;1.42;;;25.50;57.40;;;;;;4507644;31;20073;-74
2022/08/13 05:23:31;;;;;;;3.25;1.60;;;25.50;56.70;;;;;;4509918;31;20138;-73
2022/08/13 05:26:00;;;;;;;1.90;1.52;;;25.40;55.40;;;;;;4510858;31;20161;-73
2022/08/13 05:28:27;;;;;;;2.92;1.80;;;25.40;54.70;;;;;;4496639;31;20092;-73
2022/08/13 05:30:53;;;;;;;4.88;1.77;;;25.30;54.10;;;;;;4510415;31;20189;-72
2022/08/13 05:33:22;;;;;;;2.22;1.83;;;25.30;53.70;;;;;;4496421;31;20426;-72
2022/08/13 05:35:52;;;;;;;3.75;1.77;;;25.30;53.50;;;;;;4510671;31;20065;-73
2022/08/13 05:38:22;;;;;;;2.13;1.73;;;25.20;53.30;;;;;;4496314;31;20092;-73
2022/08/13 05:40:58;;;;;;;2.78;1.63;;;25.20;53.20;;;;;;4510669;31;20520;-74
2022/08/13 05:43:26;;;;;;;4.13;1.95;;;25.10;52.90;;;;;;4510933;31;20065;-73
2022/08/13 05:45:58;;;;;;;2.53;2.00;;;25.10;53.10;;;;;;4510603;31;20112;-72
2022/08/13 05:48:28;;;;;;;4.20;2.08;;;25.10;53.00;;;;;;4510594;31;20104;-73
2022/08/13 05:50:55;;;;;;;3.13;1.80;;;25.10;53.00;;;;;;4510329;31;20190;-74
2022/08/13 05:53:22;;;;;;;4.43;1.95;;;25.10;53.00;;;;;;4510450;31;20548;-74
2022/08/13 05:55:49;;;;;;;4.47;2.13;;;25.10;53.10;;;;;;4510395;31;20092;-75
2022/08/13 05:58:14;;;;;;;3.47;1.98;;;25.10;53.20;;;;;;4496242;31;20089;-74
2022/08/13 06:03:29;;;;;;;3.22;1.55;;;25.10;53.20;;;;;;4510742;31;20133;-74
2022/08/13 06:05:58;;;;;;;5.57;2.10;;;25.10;53.30;;;;;;4510013;31;20080;-74
2022/08/13 06:08:29;;;;;;;3.72;1.77;;;25.20;53.30;;;;;;4495877;31;20069;-74
2022/08/13 06:10:56;;;;;;;2.35;1.67;;;25.20;53.30;;;;;;4510495;31;20079;-74
2022/08/13 06:13:23;;;;;;;4.32;1.70;;;25.20;53.40;;;;;;4510122;31;20141;-74
2022/08/13 06:15:57;;;;;;;2.17;1.92;;;25.30;53.40;;;;;;4509997;31;20149;-75
2022/08/13 06:18:31;;;;;;;1.85;1.63;;;25.30;53.40;;;;;;4495824;31;20683;-75
2022/08/13 06:21:04;;;;;;;5.35;1.80;;;25.30;53.50;;;;;;4510379;31;20210;-75
2022/08/13 06:23:34;;;;;;;2.25;1.73;;;25.30;53.60;;;;;;4509883;31;20198;-74
2022/08/13 06:26:00;;;;;;;2.38;1.60;;;25.30;53.50;;;;;;4510019;31;20438;-75
2022/08/13 06:28:29;;;;;;;2.15;1.60;;;25.30;53.50;;;;;;4495632;31;20093;-74
2022/08/13 06:30:58;;;;;;;5.03;1.80;;;25.40;53.50;;;;;;4509574;31;20103;-74
2022/08/13 06:33:26;;;;;;;2.83;1.70;;;25.40;53.50;;;;;;4509643;31;20088;-74
2022/08/13 06:36:00;;;;;;;5.95;1.90;;;25.40;53.50;;;;;;4509218;31;20120;-74
2022/08/13 06:38:49;;;;;;;2.47;1.50;;;25.40;53.50;;;;;;4509667;31;20073;-73
2022/08/13 06:41:18;;;;;;;4.00;1.60;;;25.40;53.50;;;;;;4509810;31;20090;-73
2022/08/13 06:43:52;;;;;;;2.95;1.98;;;25.50;53.70;;;;;;4509636;31;20506;-72
2022/08/13 06:46:22;;;;;;;2.80;1.65;;;25.50;53.80;;;;;;4509855;31;20173;-75
2022/08/13 06:48:49;;;;;;;3.13;1.77;;;25.50;53.80;;;;;;4509178;31;20266;-74
2022/08/13 06:51:17;;;;;;;2.47;1.50;;;25.50;53.90;;;;;;4509961;31;20162;-74
2022/08/13 06:53:45;;;;;;;2.28;1.80;;;25.50;54.20;;;;;;4509832;31;20541;-73
2022/08/13 06:56:13;;;;;;;2.35;1.55;;;25.60;54.00;;;;;;4509377;31;20224;-74
2022/08/13 06:58:42;;;;;;;2.03;1.77;;;25.60;53.90;;;;;;4509489;31;20774;-74
2022/08/13 07:01:09;;;;;;;4.40;1.80;;;25.60;53.80;;;;;;4509171;31;20134;-74
2022/08/13 07:03:35;;;;;;;2.20;1.70;;;25.60;53.70;;;;;;4494852;31;20087;-73
2022/08/13 07:06:01;;;;;;;2.72;1.85;;;25.60;53.60;;;;;;4509380;31;20615;-74
2022/08/13 07:08:30;;;;;;;6.07;1.60;;;25.70;53.70;;;;;;4495025;31;20591;-73
2022/08/13 07:13:49;;;;;;;3.35;1.70;;;25.70;53.50;;;;;;4509558;31;20108;-73
2022/08/13 07:16:16;;;;;;;3.50;1.52;;;25.70;53.30;;;;;;4509408;31;20072;-73
2022/08/13 07:18:46;;;;;;;3.13;1.75;;;25.70;53.10;;;;;;4509296;31;20607;-73
2022/08/13 07:21:14;;;;;;;5.82;1.90;;;25.70;53.20;;;;;;4509037;31;20165;-73
2022/08/13 07:23:41;;;;;;;8.32;1.70;;;25.80;52.90;;;;;;4508747;31;20107;-73
2022/08/13 07:26:14;;;;;;;2.55;1.73;;;25.80;52.90;;;;;;4509316;31;20091;-73
2022/08/13 07:28:41;;;;;;;3.33;1.83;;;25.80;52.80;;;;;;4509077;31;20080;-74
2022/08/13 07:31:09;;;;;;;6.32;1.60;;;25.80;52.80;;;;;;4494339;31;20100;-73
2022/08/13 07:33:37;;;;;;;5.30;1.38;;;25.80;52.80;;;;;;4508913;31;20491;-73
2022/08/13 07:36:05;;;;;;;3.97;1.60;;;25.90;52.70;;;;;;4508762;31;20213;-74
2022/08/13 07:38:33;;;;;;;3.85;1.50;;;25.90;52.30;;;;;;4508819;31;20407;-74
2022/08/13 07:41:02;;;;;;;3.28;1.60;;;25.90;52.00;;;;;;4508518;31;20138;-74
2022/08/13 07:43:35;;;;;;;3.15;1.70;;;25.90;51.80;;;;;;4508664;31;20081;-74
2022/08/13 07:46:10;;;;;;;4.38;1.38;;;26.00;51.50;;;;;;4508772;31;20069;-74
2022/08/13 07:48:49;;;;;;;3.90;1.40;;;26.00;51.70;;;;;;4508795;31;20101;-76
2022/08/13 07:51:20;;;;;;;5.22;1.30;;;26.00;51.70;;;;;;4509030;31;20077;-74
2022/08/13 07:53:50;;;;;;;1.48;1.38;;;26.00;51.90;;;;;;4508745;31;20080;-74
2022/08/13 07:56:28;;;;;;;5.93;1.60;;;26.00;51.90;;;;;;4508522;31;20061;-73
2022/08/13 07:59:02;;;;;;;3.72;1.40;;;26.00;51.80;;;;;;4508592;31;20079;-73
2022/08/13 08:01:42;;;;;;;3.90;1.38;;;26.10;51.90;;;;;;4508428;31;20080;-73
2022/08/13 08:04:09;;;;;;;4.20;1.38;;;26.10;51.90;;;;;;4508809;31;20087;-74
2022/08/13 08:06:35;;;;;;;4.78;1.48;;;26.10;51.70;;;;;;4508484;31;20165;-73
2022/08/13 08:09:01;;;;;;;1.88;1.10;;;26.10;51.40;;;;;;4508492;31;20093;-74
2022/08/13 08:14:12;;;;;;;6.53;1.70;;;26.20;51.40;;;;;;4508667;31;20084;-73
2022/08/13 08:16:45;;;;;;;2.80;1.20;;;26.20;51.40;;;;;;4493706;31;20517;-74
2022/08/13 08:19:15;;;;;;;7.60;1.30;;;26.20;51.40;;;;;;4508165;31;20124;-74
2022/08/13 08:21:41;;;;;;;3.40;1.60;;;26.20;51.30;;;;;;4508557;31;20073;-73
2022/08/13 08:24:08;;;;;;;1.88;1.15;;;26.20;51.10;;;;;;4493903;31;20076;-74
2022/08/13 08:26:35;;;;;;;4.32;1.33;;;26.20;50.90;;;;;;4507894;31;20077;-73
2022/08/13 08:29:08;;;;;;;2.72;1.17;;;26.30;50.70;;;;;;4508363;31;20076;-73
2022/08/13 08:31:39;;;;;;;1.38;1.05;;;26.30;50.20;;;;;;4508287;31;20064;-73
2022/08/13 08:34:07;;;;;;;3.55;1.40;;;26.30;50.50;;;;;;4508176;31;20072;-73
2022/08/13 08:36:41;;;;;;;1.85;1.20;;;26.30;50.70;;;;;;4508256;31;20112;-73
2022/08/13 08:44:43;;;;;;;2.42;1.30;;;26.30;51.10;;;;;;4508328;31;20069;-73
2022/08/13 08:47:10;;;;;;;3.13;1.02;;;26.30;51.40;;;;;;4507831;31;20135;-73
2022/08/13 08:49:39;;;;;;;1.83;1.05;;;26.20;51.40;;;;;;4507416;31;20186;-71
2022/08/13 08:52:08;;;;;;;3.72;1.30;;;26.20;51.20;;;;;;4508112;31;20072;-73
2022/08/13 08:54:35;;;;;;;3.03;1.10;;;26.20;51.30;;;;;;4507794;31;20417;-73
2022/08/13 08:57:03;;;;;;;4.93;1.10;;;26.20;51.40;;;;;;4507395;31;20069;-73
2022/08/13 08:59:41;;;;;;;4.22;0.93;;;26.20;51.40;;;;;;4507530;31;20222;-74
2022/08/13 09:02:18;;;;;;;1.20;1.10;;;26.20;51.30;;;;;;4507919;31;20072;-73
2022/08/13 09:04:53;;;;;;;2.30;1.05;;;26.20;51.20;;;;;;4507770;31;20166;-73
2022/08/13 09:07:21;;;;;;;3.72;1.40;;;26.20;51.30;;;;;;4507912;31;20084;-73
2022/08/13 09:09:54;;;;;;;2.63;1.40;;;26.20;51.30;;;;;;4507682;31;20226;-73
2022/08/13 09:12:25;;;;;;;3.25;1.08;;;26.20;51.40;;;;;;4508105;31;20616;-72
2022/08/13 09:14:51;;;;;;;2.85;1.60;;;26.20;51.30;;;;;;4507707;31;20410;-73
2022/08/13 09:17:19;;;;;;;4.75;1.80;;;26.20;51.20;;;;;;4507247;31;20218;-73
2022/08/13 09:19:45;;;;;;;4.22;1.40;;;26.20;51.10;;;;;;4507856;31;20106;-73
2022/08/13 09:22:14;;;;;;;2.55;1.45;;;26.20;51.00;;;;;;4507601;31;20138;-73
2022/08/13 09:24:45;;;;;;;2.33;1.27;;;26.20;50.70;;;;;;4507857;31;20069;-73
2022/08/13 09:27:16;;;;;;;4.28;1.30;;;26.20;50.50;;;;;;4507634;31;20587;-73
2022/08/13 09:29:43;;;;;;;1.70;1.30;;;26.20;50.40;;;;;;4507683;31;20108;-74
2022/08/13 09:32:09;;;;;;;4.10;1.40;;;26.20;50.20;;;;;;4507239;31;20077;-73
2022/08/13 09:34:37;;;;;;;2.70;1.40;;;26.30;50.10;;;;;;4507526;31;20069;-73
2022/08/13 09:37:04;;;;;;;2.42;1.40;;;26.20;50.00;;;;;;4507853;31;20132;-73
2022/08/13 09:39:48;;;;;;;2.75;1.00;;;26.20;49.80;;;;;;4507208;31;20194;-73
2022/08/13 09:42:25;;;;;;;1.52;1.30;;;26.20;48.60;;;;;;4507632;31;20096;-73
2022/08/13 09:44:56;;;;;;;1.52;1.10;;;26.20;48.90;;;;;;4507561;31;20088;-74
2022/08/13 09:47:23;;;;;;;1.85;1.33;;;26.20;49.40;;;;;;4507373;31;20497;-73
2022/08/13 09:49:49;;;;;;;2.92;1.23;;;26.20;49.40;;;;;;4506946;31;20096;-73
2022/08/13 09:52:16;;;;;;;2.08;1.23;;;26.20;49.40;;;;;;4507373;31;20092;-73
2022/08/13 09:54:42;;;;;;;1.73;1.23;;;26.20;49.40;;;;;;4507318;31;20108;-73
2022/08/13 09:57:09;;;;;;;3.05;1.38;;;26.20;49.40;;;;;;4507384;31;20548;-73
2022/08/13 09:59:35;;;;;;;2.63;1.30;;;26.20;49.30;;;;;;4507342;31;20101;-74
2022/08/13 10:02:09;;;;;;;2.35;1.20;;;26.20;49.10;;;;;;4507375;31;20220;-73
2022/08/13 10:04:38;;;;;;;2.80;1.40;;;26.30;48.90;;;;;;4507945;31;20073;-73
2022/08/13 10:07:07;;;;;;;3.97;1.33;;;26.20;48.20;;;;;;4507241;31;20095;-73
2022/08/13 10:09:36;;;;;;;4.45;1.30;;;26.20;48.10;;;;;;4494228;31;20165;-73
2022/08/13 10:12:04;;;;;;;2.08;1.27;;;26.20;48.40;;;;;;4510414;31;20096;-74
2022/08/13 10:14:31;;;;;;;1.30;1.10;;;26.20;48.50;;;;;;4510113;31;20087;-73
2022/08/13 10:16:58;;;;;;;3.60;1.13;;;26.20;48.40;;;;;;4510095;31;20410;-73
2022/08/13 10:19:24;;;;;;;2.22;1.00;;;26.20;48.30;;;;;;4510031;31;20226;-73
2022/08/13 10:21:50;;;;;;;1.10;1.00;;;26.20;48.30;;;;;;4510014;31;20072;-73
2022/08/13 10:24:17;;;;;;;3.30;1.20;;;26.20;48.20;;;;;;4510002;31;20081;-73
2022/08/13 10:26:42;;;;;;;4.03;1.02;;;26.20;48.10;;;;;;4509951;31;20171;-73
2022/08/13 10:29:09;;;;;;;3.17;1.10;;;26.20;47.80;;;;;;4510144;31;20211;-73
2022/08/13 10:31:35;;;;;;;1.75;1.00;;;26.30;47.80;;;;;;4510006;31;20073;-73
2022/08/13 10:34:03;;;;;;;2.80;1.08;;;26.20;47.40;;;;;;4509996;31;20161;-73
2022/08/13 10:36:30;;;;;;;3.72;1.10;;;26.20;47.30;;;;;;4495264;31;20214;-73
2022/08/13 10:38:56;;;;;;;3.67;1.17;;;26.20;47.30;;;;;;4509786;31;20086;-73
2022/08/13 10:41:24;;;;;;;1.85;1.10;;;26.20;47.30;;;;;;4509816;31;20148;-73
2022/08/13 10:43:51;;;;;;;2.85;1.27;;;26.30;47.50;;;;;;4509417;31;20560;-73
2022/08/13 10:46:17;;;;;;;2.28;1.00;;;26.30;47.30;;;;;;4509608;31;20091;-74
2022/08/13 10:48:44;;;;;;;4.28;1.20;;;26.30;47.40;;;;;;4509393;31;20131;-73
2022/08/13 10:51:11;;;;;;;4.40;1.30;;;26.30;47.20;;;;;;4509892;31;20065;-73
2022/08/13 10:56:23;;;;;;;6.07;1.10;;;26.30;47.20;;;;;;4509698;31;20131;-74
2022/08/13 10:58:51;;;;;;;2.55;1.10;;;26.30;47.20;;;;;;4509430;31;20072;-73
2022/08/13 11:01:22;;;;;;;3.17;1.00;;;26.30;46.90;;;;;;4509375;31;20096;-73
2022/08/13 11:03:48;;;;;;;3.30;1.30;;;26.30;46.70;;;;;;4509443;31;20214;-73
2022/08/13 11:06:14;;;;;;;2.83;1.10;;;26.30;46.60;;;;;;4509148;31;20053;-72
2022/08/13 11:08:39;;;;;;;3.05;1.13;;;26.30;46.40;;;;;;4509587;31;20084;-73
2022/08/13 11:11:07;;;;;;;2.97;1.20;;;26.30;46.40;;;;;;4494794;31;20274;-72
2022/08/13 11:13:36;;;;;;;1.27;0.90;;;26.30;46.50;;;;;;4509199;31;20073;-73
2022/08/13 11:16:05;;;;;;;1.33;0.98;;;26.30;46.60;;;;;;4509069;31;20073;-73
2022/08/13 11:18:32;;;;;;;3.20;1.10;;;26.30;46.60;;;;;;4509194;31;20222;-72
2022/08/13 11:21:08;;;;;;;4.00;1.05;;;26.30;46.60;;;;;;4508507;31;20092;-72
2022/08/13 11:23:35;;;;;;;3.65;1.20;;;26.30;46.60;;;;;;4509131;31;20076;-73
2022/08/13 11:26:02;;;;;;;2.78;1.30;;;26.40;46.30;;;;;;4509046;31;20089;-72
2022/08/13 11:28:28;;;;;;;1.63;0.93;;;26.30;46.30;;;;;;4508829;31;20080;-72
2022/08/13 11:30:55;;;;;;;3.25;1.00;;;26.30;46.30;;;;;;4508988;31;20092;-73
2022/08/13 11:33:23;;;;;;;1.77;1.10;;;26.40;46.30;;;;;;4494765;31;20065;-73
2022/08/13 11:35:51;;;;;;;2.42;1.25;;;26.40;46.40;;;;;;4494599;31;20099;-73
2022/08/13 11:38:19;;;;;;;2.30;1.25;;;26.40;46.30;;;;;;4508873;31;20095;-73
2022/08/13 11:40:53;;;;;;;3.95;1.17;;;26.40;46.30;;;;;;4508845;31;20197;-73
2022/08/13 11:43:24;;;;;;;2.47;0.90;;;26.40;46.30;;;;;;4509107;31;20064;-73
2022/08/13 11:45:50;;;;;;;2.97;1.20;;;26.40;46.40;;;;;;4508612;31;20095;-73
2022/08/13 11:48:17;;;;;;;4.25;0.80;;;26.40;46.30;;;;;;4508470;31;20132;-73
2022/08/13 11:50:43;;;;;;;1.15;1.05;;;26.40;46.20;;;;;;4508508;31;20094;-73
2022/08/13 11:53:10;;;;;;;4.57;1.38;;;26.40;45.90;;;;;;4508611;31;20405;-73
2022/08/13 11:55:37;;;;;;;3.63;1.08;;;26.40;46.00;;;;;;4508569;31;20095;-74
2022/08/13 11:58:05;;;;;;;1.73;0.80;;;26.40;46.00;;;;;;4508301;31;20120;-79
2022/08/13 12:00:32;;;;;;;2.80;1.08;;;26.50;46.20;;;;;;4508448;31;20073;-74
2022/08/13 12:02:58;;;;;;;1.10;0.93;;;26.40;46.10;;;;;;4508768;31;20614;-72
2022/08/13 12:05:24;;;;;;;1.42;1.02;;;26.40;46.00;;;;;;4508151;31;20073;-72
2022/08/13 12:07:50;;;;;;;1.95;1.15;;;26.50;45.90;;;;;;4508373;31;20084;-72
2022/08/13 12:10:18;;;;;;;3.22;1.10;;;26.50;45.90;;;;;;4508248;31;20495;-73
2022/08/13 12:12:45;;;;;;;2.47;1.05;;;26.50;45.80;;;;;;4508266;31;20087;-73
2022/08/13 12:15:13;;;;;;;3.42;1.10;;;26.50;46.00;;;;;;4508283;31;20107;-73
2022/08/13 12:17:48;;;;;;;2.88;1.10;;;26.50;46.10;;;;;;4508096;31;20065;-74
2022/08/13 12:20:20;;;;;;;4.32;1.10;;;26.50;46.30;;;;;;4508114;31;20073;-73
2022/08/13 12:22:50;;;;;;;4.30;1.00;;;26.60;46.50;;;;;;4507807;31;20073;-73
2022/08/13 12:25:16;;;;;;;1.35;0.80;;;26.50;46.40;;;;;;4508442;31;20080;-72
2022/08/13 12:27:42;;;;;;;1.38;1.13;;;26.60;46.30;;;;;;4507770;31;20143;-73
2022/08/13 12:30:08;;;;;;;5.45;1.20;;;26.60;46.10;;;;;;4507810;31;20140;-73
2022/08/13 12:32:34;;;;;;;3.28;1.05;;;26.60;46.20;;;;;;4507445;31;20405;-73
2022/08/13 12:35:00;;;;;;;4.45;0.88;;;26.60;46.40;;;;;;4507929;31;20076;-73
2022/08/13 12:37:26;;;;;;;1.30;0.82;;;26.60;46.40;;;;;;4508034;31;20226;-73
2022/08/13 12:39:57;;;;;;;1.65;1.00;;;26.70;46.50;;;;;;4508135;31;20410;-73
2022/08/13 12:42:24;;;;;;;2.13;0.98;;;26.70;46.30;;;;;;4508185;31;20676;-73
2022/08/13 12:44:50;;;;;;;5.28;1.17;;;26.70;46.40;;;;;;4507705;31;20218;-66
2022/08/13 12:47:16;;;;;;;3.78;1.15;;;26.70;46.50;;;;;;4507796;31;20056;-67
2022/08/13 12:49:42;;;;;;;3.05;1.08;;;26.70;46.60;;;;;;4507579;31;20216;-67
2022/08/13 12:52:07;;;;;;;1.92;0.93;;;26.70;46.70;;;;;;4507746;31;20087;-67
2022/08/13 12:54:33;;;;;;;3.58;1.40;;;26.70;47.00;;;;;;4507664;31;20128;-70
2022/08/13 12:57:00;;;;;;;3.80;1.20;;;26.70;47.00;;;;;;4493317;31;20084;-67
2022/08/13 12:59:26;;;;;;;1.77;0.95;;;26.70;47.00;;;;;;4507606;31;20084;-66
2022/08/13 13:01:55;;;;;;;3.15;1.30;;;26.70;47.20;;;;;;4507542;31;20091;-66
2022/08/13 13:04:22;;;;;;;2.10;1.10;;;26.70;47.20;;;;;;4507637;31;20426;-67
2022/08/13 13:06:52;;;;;;;2.00;1.10;;;26.70;47.20;;;;;;4507578;31;20092;-67
2022/08/13 13:09:19;;;;;;;2.42;1.08;;;26.70;47.30;;;;;;4507637;31;20112;-66
2022/08/13 13:11:46;;;;;;;2.15;1.00;;;26.70;47.30;;;;;;4507968;31;20659;-66
2022/08/13 13:14:12;;;;;;;2.35;1.10;;;26.70;47.20;;;;;;4507884;31;20077;-66
2022/08/13 13:16:41;;;;;;;2.15;1.13;;;26.70;47.30;;;;;;4492881;31;20157;-67
2022/08/13 13:19:09;;;;;;;1.25;0.80;;;26.70;47.30;;;;;;4507614;31;20116;-67
2022/08/13 13:21:35;;;;;;;2.97;1.00;;;26.70;47.00;;;;;;4507506;31;20495;-69
2022/08/13 13:24:03;;;;;;;1.40;1.00;;;26.70;47.20;;;;;;4507538;31;20506;-66